Ossineke, Michigan
Current Conditions -  °F | °C
As of 2:54 PM on Sunday 25 Jan 2015 (Local Time) from KAPN Reporting Station
Clear Clear  
Wind Chill:   Ceiling: Unl
Heat Index: 16°   Visibility: 10mi
Dew Point:   Wind: 6mph
Humidity: 59%   Direction: 40°NE
Pressure: 30.04"   Gusts: NA
Location:  44.9°N, 83.44°W
Report Text: KAPN 251954Z AUTO 04005KT 10SM CLR M09/M16 A3004 RMK AO2 SLP188 T10891156 $
Loading
Personal Weather Stations






























Interactive Weather Map New forecast layout! Learn more

10-Day Weather Forecast

Advertisements
Track Severe Weather on mobile